Time;durP1;ratioP1;P1;durP2;ratioP2;P2;SDS_P1;SDS_P2;PMS_P1;PMS_P2;Temp;Humidity;BMP_temperature;BMP_pressure;BME280_temperature;BME280_humidity;BME280_pressure;Samples;Min_cycle;Max_cycle;Signal;HPM_P1;HPM_P2
2023/10/25 00:02:10;;;;;;;11.82;4.88;;;9.70;92.00;;;;;;6196211;28;20061;-78
2023/10/25 00:05:12;;;;;;;14.02;4.78;;;9.70;91.90;;;;;;6219299;28;20085;-78
2023/10/25 00:08:14;;;;;;;13.35;6.28;;;9.70;91.90;;;;;;6194816;28;20048;-78
2023/10/25 00:11:16;;;;;;;9.82;5.03;;;9.70;91.80;;;;;;6219782;28;20054;-78
2023/10/25 00:14:17;;;;;;;12.43;4.45;;;9.70;92.00;;;;;;6209871;28;20054;-80
2023/10/25 00:17:19;;;;;;;10.15;4.10;;;9.70;92.00;;;;;;6196119;28;20070;-78
2023/10/25 00:20:20;;;;;;;11.25;4.93;;;9.70;91.90;;;;;;6218966;28;20762;-78
2023/10/25 00:23:22;;;;;;;9.07;4.38;;;9.70;92.00;;;;;;6195803;28;20613;-78
2023/10/25 00:26:24;;;;;;;12.05;4.28;;;9.70;91.90;;;;;;6218517;28;20065;-78
2023/10/25 00:29:25;;;;;;;9.65;4.13;;;9.70;92.00;;;;;;6207242;28;20060;-77
2023/10/25 00:32:27;;;;;;;11.15;4.68;;;9.80;92.10;;;;;;6195169;28;20054;-78
2023/10/25 00:35:28;;;;;;;8.88;4.43;;;9.90;92.10;;;;;;6218119;28;20057;-78
2023/10/25 00:38:30;;;;;;;10.15;3.83;;;9.90;92.00;;;;;;6195017;28;20069;-77
2023/10/25 00:41:32;;;;;;;9.88;3.67;;;9.90;91.80;;;;;;6218336;28;20062;-77
2023/10/25 00:44:33;;;;;;;8.95;3.70;;;10.00;91.50;;;;;;6204738;28;20419;-78
2023/10/25 00:47:35;;;;;;;9.45;3.55;;;10.00;91.50;;;;;;6194966;28;20050;-77
2023/10/25 00:50:36;;;;;;;11.07;3.35;;;10.00;91.60;;;;;;6218175;28;20054;-79
2023/10/25 00:53:40;;;;;;;8.27;3.47;;;10.00;91.60;;;;;;6194520;28;20194;-78
2023/10/25 00:56:42;;;;;;;9.15;3.80;;;10.10;91.40;;;;;;6216840;28;20046;-78
2023/10/25 00:59:43;;;;;;;6.88;2.88;;;10.10;91.40;;;;;;6189127;28;20058;-78
2023/10/25 01:02:45;;;;;;;9.55;2.90;;;10.10;91.40;;;;;;6218124;28;20057;-78
2023/10/25 01:05:47;;;;;;;7.63;2.97;;;10.20;91.50;;;;;;6194617;28;20141;-78
2023/10/25 01:08:48;;;;;;;9.88;2.78;;;10.20;91.30;;;;;;6217011;28;20046;-79
2023/10/25 01:11:50;;;;;;;9.63;2.97;;;10.20;91.20;;;;;;6193468;28;20498;-77
2023/10/25 01:14:51;;;;;;;6.95;2.13;;;10.20;91.00;;;;;;6217891;28;20619;-77
2023/10/25 01:17:53;;;;;;;8.63;2.50;;;10.20;91.20;;;;;;6193283;28;20082;-77
2023/10/25 01:20:55;;;;;;;11.00;2.97;;;10.20;91.20;;;;;;6218150;28;20459;-77
2023/10/25 01:23:56;;;;;;;6.38;2.30;;;10.30;91.20;;;;;;6194542;28;20062;-79
2023/10/25 01:26:58;;;;;;;7.28;2.63;;;10.20;91.30;;;;;;6217725;28;20493;-77
2023/10/25 01:30:00;;;;;;;7.05;2.33;;;10.20;91.50;;;;;;6198945;28;20062;-78
2023/10/25 01:33:01;;;;;;;5.93;2.40;;;10.20;91.60;;;;;;6222115;28;20052;-77
2023/10/25 01:36:03;;;;;;;8.60;2.58;;;10.20;91.70;;;;;;6199088;28;20073;-78
2023/10/25 01:39:05;;;;;;;11.13;2.55;;;10.20;91.80;;;;;;6221530;28;20050;-76
2023/10/25 01:42:06;;;;;;;9.85;2.35;;;10.20;91.80;;;;;;6199482;28;20172;-77
2023/10/25 01:45:08;;;;;;;5.68;2.40;;;10.20;91.70;;;;;;6214338;28;20081;-76
2023/10/25 01:48:10;;;;;;;5.57;2.50;;;10.20;91.70;;;;;;6199226;28;20061;-77
2023/10/25 01:51:11;;;;;;;6.20;2.70;;;10.20;91.70;;;;;;6221072;28;20061;-77
2023/10/25 01:54:13;;;;;;;8.05;2.55;;;10.20;91.80;;;;;;6199125;28;20422;-77
2023/10/25 01:57:15;;;;;;;7.18;2.60;;;10.20;91.90;;;;;;6222034;28;20064;-77
2023/10/25 02:00:17;;;;;;;5.95;3.08;;;10.20;91.80;;;;;;6209314;28;20060;-78
2023/10/25 02:03:18;;;;;;;7.93;3.00;;;10.20;91.90;;;;;;6198169;28;20053;-78
2023/10/25 02:06:20;;;;;;;10.40;3.20;;;10.20;92.00;;;;;;6206527;28;20662;-78
2023/10/25 02:09:22;;;;;;;9.88;3.50;;;10.20;91.90;;;;;;6222002;28;20045;-79
2023/10/25 02:12:24;;;;;;;8.32;3.55;;;10.20;92.00;;;;;;6197559;28;20054;-78
2023/10/25 02:15:25;;;;;;;9.15;3.50;;;10.20;91.90;;;;;;6218862;28;20054;-77
2023/10/25 02:18:27;;;;;;;8.63;3.42;;;10.20;92.10;;;;;;6197044;28;20062;-79
2023/10/25 02:21:28;;;;;;;10.45;3.58;;;10.20;92.10;;;;;;6221330;28;20045;-79
2023/10/25 02:24:30;;;;;;;13.65;3.85;;;10.30;92.20;;;;;;6197951;28;20514;-79
2023/10/25 02:27:31;;;;;;;9.00;3.38;;;10.30;92.20;;;;;;6219981;28;20054;-79
2023/10/25 02:30:33;;;;;;;11.70;4.00;;;10.30;92.20;;;;;;6194554;28;20058;-79
2023/10/25 02:33:35;;;;;;;7.53;3.33;;;10.30;92.00;;;;;;6173148;28;20514;-79
2023/10/25 02:36:36;;;;;;;7.97;3.33;;;10.40;92.10;;;;;;6220447;28;20057;-79
2023/10/25 02:39:38;;;;;;;9.63;3.55;;;10.40;91.90;;;;;;6196014;28;20064;-79
2023/10/25 02:42:44;;;;;;;8.10;3.20;;;10.30;91.90;;;;;;6219578;28;20061;-79
2023/10/25 02:45:45;;;;;;;9.23;3.03;;;10.40;92.00;;;;;;6209339;28;20062;-78
2023/10/25 02:48:47;;;;;;;7.15;2.50;;;10.50;92.00;;;;;;6197571;28;20077;-78
2023/10/25 02:51:49;;;;;;;6.18;2.20;;;10.40;91.90;;;;;;6220649;28;20125;-78
2023/10/25 02:54:50;;;;;;;9.23;2.13;;;10.40;91.90;;;;;;6197301;28;20092;-78
2023/10/25 02:57:52;;;;;;;9.20;2.85;;;10.50;91.90;;;;;;6217399;28;20053;-79
2023/10/25 03:00:56;;;;;;;8.40;2.40;;;10.50;91.80;;;;;;6195331;28;20057;-77
2023/10/25 03:03:58;;;;;;;9.48;2.40;;;10.50;91.80;;;;;;6172438;28;20510;-77
2023/10/25 03:06:59;;;;;;;6.75;2.47;;;10.40;91.80;;;;;;6200102;28;20069;-77
2023/10/25 03:10:02;;;;;;;5.00;2.00;;;10.50;92.00;;;;;;6220375;28;20054;-77
2023/10/25 03:13:04;;;;;;;5.95;1.90;;;10.40;92.20;;;;;;6195863;28;20064;-77
2023/10/25 03:16:05;;;;;;;6.75;1.90;;;10.50;92.20;;;;;;6221119;28;20061;-78
2023/10/25 03:19:07;;;;;;;6.18;2.33;;;10.50;92.20;;;;;;6172712;28;20054;-78
2023/10/25 03:22:09;;;;;;;5.65;2.40;;;10.50;92.20;;;;;;6234579;28;20049;-76
2023/10/25 03:25:10;;;;;;;5.28;2.05;;;10.50;92.20;;;;;;6195266;28;20577;-76
2023/10/25 03:28:12;;;;;;;7.57;2.10;;;10.50;92.30;;;;;;6213608;28;20097;-77
2023/10/25 03:31:14;;;;;;;5.05;2.13;;;10.60;92.30;;;;;;6196047;28;20054;-78
2023/10/25 03:34:18;;;;;;;5.68;1.98;;;10.50;92.30;;;;;;6219723;28;20621;-78
2023/10/25 03:37:20;;;;;;;8.75;2.60;;;10.50;92.40;;;;;;6196247;28;20050;-78
2023/10/25 03:40:22;;;;;;;9.48;2.38;;;10.50;92.30;;;;;;6218318;28;20547;-78
2023/10/25 03:43:23;;;;;;;5.32;2.05;;;10.50;92.30;;;;;;6200219;28;20054;-78
2023/10/25 03:46:25;;;;;;;5.93;2.50;;;10.50;92.50;;;;;;6220562;28;20065;-78
2023/10/25 03:49:26;;;;;;;8.02;2.72;;;10.60;92.50;;;;;;6197392;28;20046;-78
2023/10/25 03:52:28;;;;;;;7.70;2.58;;;10.60;92.50;;;;;;6221104;28;20536;-78
2023/10/25 03:55:30;;;;;;;8.88;2.88;;;10.60;92.50;;;;;;6195101;28;20428;-77
2023/10/25 03:58:31;;;;;;;7.13;2.53;;;10.50;92.50;;;;;;6207664;28;20058;-77
2023/10/25 04:01:33;;;;;;;5.85;2.55;;;10.50;92.60;;;;;;6193167;28;20065;-77
2023/10/25 04:04:34;;;;;;;7.22;2.95;;;10.50;92.70;;;;;;6218751;28;20064;-77
2023/10/25 04:07:36;;;;;;;8.70;2.85;;;10.50;92.70;;;;;;6193997;28;20072;-76
2023/10/25 04:10:38;;;;;;;7.38;3.47;;;10.50;92.70;;;;;;6218761;28;20050;-76
2023/10/25 04:13:39;;;;;;;8.55;2.63;;;10.50;92.80;;;;;;6202227;28;20049;-77
2023/10/25 04:16:41;;;;;;;9.15;3.47;;;10.40;92.80;;;;;;6195611;28;20054;-77
2023/10/25 04:19:43;;;;;;;9.35;3.85;;;10.50;92.90;;;;;;6218813;28;20050;-77
2023/10/25 04:22:45;;;;;;;12.45;3.58;;;10.40;92.90;;;;;;6195241;28;20149;-77
2023/10/25 04:25:46;;;;;;;10.20;3.72;;;10.40;93.00;;;;;;6218476;28;20049;-77
2023/10/25 04:28:48;;;;;;;8.43;3.58;;;10.40;93.00;;;;;;6199202;28;20057;-77
2023/10/25 04:31:50;;;;;;;8.27;3.70;;;10.50;93.10;;;;;;6195049;28;20148;-76
2023/10/25 04:34:51;;;;;;;11.23;4.65;;;10.50;93.10;;;;;;6218769;28;20058;-77
2023/10/25 04:37:55;;;;;;;9.30;4.03;;;10.50;93.20;;;;;;6195670;28;20060;-77
2023/10/25 04:40:56;;;;;;;12.68;5.07;;;10.50;93.20;;;;;;6219054;28;20057;-77
2023/10/25 04:43:58;;;;;;;12.43;5.38;;;10.50;93.20;;;;;;6203131;28;20050;-78
2023/10/25 04:47:00;;;;;;;11.27;5.75;;;10.40;93.20;;;;;;6195013;28;20065;-78
2023/10/25 04:50:04;;;;;;;14.93;5.93;;;10.50;93.30;;;;;;6218990;28;20640;-78
2023/10/25 04:53:06;;;;;;;15.43;5.80;;;10.50;93.30;;;;;;6195107;28;20492;-77
2023/10/25 04:56:07;;;;;;;13.05;6.47;;;10.40;93.30;;;;;;6217937;28;20057;-79
2023/10/25 04:59:10;;;;;;;11.32;5.57;;;10.50;93.40;;;;;;6204781;28;20050;-78
2023/10/25 05:02:11;;;;;;;11.93;5.65;;;10.50;93.40;;;;;;6196716;28;20427;-78
2023/10/25 05:05:13;;;;;;;18.83;6.65;;;10.50;93.40;;;;;;6217722;28;20755;-78
2023/10/25 05:08:15;;;;;;;14.60;6.60;;;10.40;93.30;;;;;;6199339;28;20426;-78
2023/10/25 05:11:16;;;;;;;14.88;6.90;;;10.50;93.40;;;;;;6222679;28;20430;-78
2023/10/25 05:14:18;;;;;;;15.75;7.40;;;10.50;93.40;;;;;;6210254;28;20050;-78
2023/10/25 05:17:19;;;;;;;18.38;7.93;;;10.50;93.40;;;;;;6199573;28;20057;-78
2023/10/25 05:20:21;;;;;;;16.02;8.50;;;10.50;93.50;;;;;;6222768;28;20056;-78
2023/10/25 05:23:22;;;;;;;19.90;8.55;;;10.50;93.50;;;;;;6197941;28;20054;-78
2023/10/25 05:26:24;;;;;;;20.52;8.77;;;10.60;93.50;;;;;;6222205;28;20115;-78
2023/10/25 05:29:26;;;;;;;18.40;8.57;;;10.60;93.50;;;;;;6209625;28;20458;-78
2023/10/25 05:32:27;;;;;;;21.90;9.88;;;10.60;93.50;;;;;;6198661;28;20498;-79
2023/10/25 05:35:29;;;;;;;21.67;9.55;;;10.60;93.50;;;;;;6222403;28;20061;-78
2023/10/25 05:38:30;;;;;;;20.42;9.63;;;10.60;93.50;;;;;;6198895;28;20082;-79
2023/10/25 05:41:35;;;;;;;20.30;8.73;;;10.60;93.50;;;;;;6222095;28;20058;-79
2023/10/25 05:44:36;;;;;;;19.23;9.02;;;10.70;93.50;;;;;;6203235;28;20061;-79
2023/10/25 05:47:38;;;;;;;19.52;8.60;;;10.70;93.60;;;;;;6198825;28;20061;-79
2023/10/25 05:50:43;;;;;;;17.83;8.15;;;10.70;93.60;;;;;;6222364;28;20050;-79
2023/10/25 05:53:47;;;;;;;19.27;8.75;;;10.70;93.60;;;;;;6197893;28;20062;-78
2023/10/25 05:56:48;;;;;;;15.52;7.90;;;10.70;93.50;;;;;;6221123;28;20046;-78
2023/10/25 05:59:52;;;;;;;18.60;8.18;;;10.70;93.60;;;;;;6196067;28;20062;-79
2023/10/25 06:02:53;;;;;;;16.73;9.23;;;10.70;93.50;;;;;;6220269;28;20050;-78
2023/10/25 06:05:56;;;;;;;18.23;9.45;;;10.70;93.50;;;;;;6196047;28;20050;-78
2023/10/25 06:08:57;;;;;;;16.40;8.63;;;10.70;93.50;;;;;;6221264;28;20065;-78
2023/10/25 06:11:59;;;;;;;22.17;9.07;;;10.80;93.60;;;;;;6198248;28;20054;-78
2023/10/25 06:15:01;;;;;;;17.60;8.57;;;10.80;93.60;;;;;;6219436;28;20050;-78
2023/10/25 06:18:07;;;;;;;16.08;8.73;;;10.70;93.60;;;;;;6198242;28;20066;-79
2023/10/25 06:21:09;;;;;;;17.00;8.52;;;10.80;93.60;;;;;;6173517;28;20051;-79
2023/10/25 06:24:11;;;;;;;14.73;7.90;;;10.80;93.60;;;;;;6220006;28;20050;-78
2023/10/25 06:27:13;;;;;;;16.30;8.77;;;10.90;93.60;;;;;;6196417;28;20069;-78
2023/10/25 06:30:14;;;;;;;14.85;8.45;;;10.80;93.60;;;;;;6216571;28;20054;-79
2023/10/25 06:33:16;;;;;;;15.50;9.15;;;10.80;93.60;;;;;;6198082;28;20414;-78
2023/10/25 06:36:17;;;;;;;16.60;8.57;;;10.80;93.60;;;;;;6221255;28;20065;-77
2023/10/25 06:39:19;;;;;;;19.17;9.43;;;10.90;93.60;;;;;;6196371;28;20462;-78
2023/10/25 06:42:21;;;;;;;19.92;9.48;;;10.90;93.60;;;;;;6220856;28;20058;-78
2023/10/25 06:45:22;;;;;;;14.32;7.55;;;11.00;93.60;;;;;;6208605;28;20061;-78
2023/10/25 06:48:24;;;;;;;17.23;8.15;;;11.00;93.60;;;;;;6196255;28;20061;-78
2023/10/25 06:51:25;;;;;;;18.05;8.00;;;11.00;93.60;;;;;;6219720;28;20053;-78
2023/10/25 06:54:27;;;;;;;13.02;7.18;;;11.00;93.60;;;;;;6196761;28;20061;-78
2023/10/25 06:57:29;;;;;;;18.13;7.57;;;11.00;93.60;;;;;;6219811;28;20053;-78
2023/10/25 07:00:31;;;;;;;15.20;7.38;;;11.00;93.60;;;;;;6193887;28;20054;-78
2023/10/25 07:03:34;;;;;;;15.45;7.32;;;11.00;93.60;;;;;;6171696;28;20055;-78
2023/10/25 07:06:35;;;;;;;16.92;7.22;;;11.10;93.60;;;;;;6202149;28;20053;-79
2023/10/25 07:09:37;;;;;;;15.38;7.53;;;11.10;93.60;;;;;;6218998;28;20054;-78
2023/10/25 07:12:39;;;;;;;17.30;7.32;;;11.10;93.70;;;;;;6196355;28;20532;-77
2023/10/25 07:15:41;;;;;;;13.70;6.28;;;11.10;93.60;;;;;;6219002;28;20053;-77
2023/10/25 07:18:45;;;;;;;14.13;6.72;;;11.10;93.60;;;;;;6186803;28;20055;-78
2023/10/25 07:21:47;;;;;;;12.73;6.35;;;11.10;93.50;;;;;;6234565;28;20061;-77
2023/10/25 07:24:48;;;;;;;13.02;6.78;;;11.10;93.60;;;;;;6195325;28;20456;-78
2023/10/25 07:27:50;;;;;;;13.93;6.10;;;11.10;93.30;;;;;;6214332;28;20054;-79
2023/10/25 07:30:52;;;;;;;16.13;6.43;;;11.10;93.20;;;;;;6194658;28;20050;-79
2023/10/25 07:33:53;;;;;;;13.25;6.35;;;11.10;93.30;;;;;;6171609;28;20157;-78
2023/10/25 07:36:55;;;;;;;12.13;6.10;;;11.20;93.30;;;;;;6219250;28;20648;-80
2023/10/25 07:39:57;;;;;;;13.15;5.82;;;11.20;93.20;;;;;;6194950;28;20513;-80
2023/10/25 07:42:58;;;;;;;14.50;5.80;;;11.30;93.10;;;;;;6214672;28;20054;-80
2023/10/25 07:46:00;;;;;;;12.63;5.43;;;11.30;93.00;;;;;;6213352;28;20060;-78
2023/10/25 07:49:02;;;;;;;15.00;5.63;;;11.40;93.10;;;;;;6195663;28;20054;-82
2023/10/25 07:52:04;;;;;;;16.35;6.20;;;11.40;92.90;;;;;;6219450;28;20054;-78
2023/10/25 07:55:05;;;;;;;13.27;6.05;;;11.50;92.80;;;;;;6196041;28;20054;-78
2023/10/25 07:58:27;;;;;;;16.63;7.43;;;11.50;92.70;;;;;;6208987;28;20665;-77
2023/10/25 08:01:29;;;;;;;15.65;7.22;;;11.40;92.10;;;;;;6195537;28;20054;-78
2023/10/25 08:04:31;;;;;;;16.58;6.70;;;11.50;92.20;;;;;;6218917;28;20054;-77
2023/10/25 08:07:36;;;;;;;16.25;6.35;;;11.50;91.90;;;;;;6192355;28;20073;-77
2023/10/25 08:10:38;;;;;;;13.02;6.13;;;11.50;91.70;;;;;;6219320;28;20046;-78
2023/10/25 08:13:42;;;;;;;14.02;6.13;;;11.50;91.20;;;;;;6200093;28;20062;-77
2023/10/25 08:16:43;;;;;;;17.98;6.30;;;11.60;91.50;;;;;;6195426;28;20062;-78
2023/10/25 08:19:45;;;;;;;13.82;6.72;;;11.60;90.40;;;;;;6218939;28;20054;-78
2023/10/25 08:22:46;;;;;;;13.10;6.05;;;11.50;90.70;;;;;;6196064;28;20077;-77
2023/10/25 08:25:48;;;;;;;12.93;6.13;;;11.50;91.00;;;;;;6218525;28;20367;-77
2023/10/25 08:28:50;;;;;;;16.90;6.38;;;11.50;90.80;;;;;;6199156;28;20046;-78
2023/10/25 08:31:52;;;;;;;11.43;6.57;;;11.50;90.40;;;;;;6196257;28;20050;-78
2023/10/25 08:34:54;;;;;;;12.98;5.22;;;11.40;90.40;;;;;;6202629;28;20047;-78
2023/10/25 08:37:55;;;;;;;13.02;5.90;;;11.30;90.40;;;;;;6221539;28;20045;-79
2023/10/25 08:40:57;;;;;;;12.38;5.90;;;11.30;90.60;;;;;;6230187;28;20148;-84
2023/10/25 08:43:59;;;;;;;11.57;5.80;;;11.50;90.90;;;;;;6202664;28;20065;-76
2023/10/25 08:47:00;;;;;;;12.63;5.55;;;11.50;90.40;;;;;;6197890;28;20096;-89
2023/10/25 08:50:03;;;;;;;11.38;5.20;;;11.60;90.30;;;;;;6222702;28;20049;-82
2023/10/25 08:53:05;;;;;;;12.63;5.15;;;11.60;90.20;;;;;;6230500;28;20056;-88
2023/10/25 08:56:07;;;;;;;14.90;5.45;;;11.60;90.10;;;;;;6187688;28;20050;-80
2023/10/25 08:59:09;;;;;;;9.35;5.07;;;11.70;90.00;;;;;;6201491;28;20050;-80
2023/10/25 09:02:11;;;;;;;10.65;5.40;;;11.80;90.10;;;;;;6218259;28;20540;-79
2023/10/25 09:05:12;;;;;;;11.40;4.68;;;11.80;88.00;;;;;;6218989;28;20502;-80
2023/10/25 09:08:14;;;;;;;14.05;4.80;;;11.90;88.20;;;;;;6194351;28;20050;-78
2023/10/25 09:11:16;;;;;;;14.70;5.38;;;12.00;84.50;;;;;;6194716;28;20061;-81
2023/10/25 09:14:18;;;;;;;9.75;4.90;;;11.90;85.90;;;;;;6194045;28;20054;-81
2023/10/25 09:17:19;;;;;;;13.07;5.00;;;12.00;88.10;;;;;;6218556;28;20054;-82
2023/10/25 09:20:21;;;;;;;13.93;5.65;;;12.10;86.30;;;;;;6198096;28;20141;-91
2023/10/25 09:23:23;;;;;;;11.48;4.72;;;12.10;87.40;;;;;;6201648;28;20538;-86
2023/10/25 09:26:25;;;;;;;10.20;4.60;;;12.10;86.00;;;;;;6208387;28;20057;-80
2023/10/25 09:29:27;;;;;;;12.43;4.95;;;12.20;88.20;;;;;;6202666;28;20052;-79
2023/10/25 09:32:33;;;;;;;9.55;4.40;;;12.30;86.20;;;;;;6169641;28;20051;-78
2023/10/25 09:35:35;;;;;;;12.23;5.13;;;12.20;83.30;;;;;;6217130;28;20046;-79
2023/10/25 09:38:36;;;;;;;15.52;5.28;;;12.00;81.20;;;;;;6194372;28;20062;-79
2023/10/25 09:41:39;;;;;;;11.93;4.13;;;12.00;84.00;;;;;;6192241;28;20061;-80
2023/10/25 09:44:44;;;;;;;11.90;4.93;;;12.00;85.60;;;;;;6201641;28;20072;-81
2023/10/25 09:47:48;;;;;;;13.65;4.70;;;12.10;86.50;;;;;;6194691;28;20069;-78
2023/10/25 09:50:51;;;;;;;11.00;4.97;;;12.10;88.20;;;;;;6202405;28;20489;-83
2023/10/25 09:53:53;;;;;;;11.98;4.65;;;12.30;86.40;;;;;;6200307;28;20517;-86
2023/10/25 09:56:55;;;;;;;11.07;4.70;;;12.40;85.80;;;;;;6224551;28;20137;-82
2023/10/25 09:59:57;;;;;;;10.05;4.72;;;12.50;84.80;;;;;;6201552;28;20058;-89
2023/10/25 10:03:00;;;;;;;13.93;5.07;;;12.80;83.70;;;;;;6210067;28;20051;-86
2023/10/25 10:06:02;;;;;;;10.43;4.30;;;13.10;83.30;;;;;;6228335;28;20072;-83
2023/10/25 10:09:07;;;;;;;9.18;3.90;;;13.30;81.90;;;;;;6198674;28;20057;-84
2023/10/25 10:12:09;;;;;;;10.85;4.70;;;13.50;78.50;;;;;;6200685;28;20050;-85
2023/10/25 10:15:14;;;;;;;17.38;5.82;;;13.70;78.80;;;;;;6196036;28;20473;-83
2023/10/25 10:18:16;;;;;;;13.60;5.20;;;13.90;75.10;;;;;;6199359;28;20151;-86
2023/10/25 10:21:17;;;;;;;12.52;5.13;;;13.90;75.10;;;;;;6211373;28;20185;-80
2023/10/25 10:24:19;;;;;;;12.77;4.90;;;14.00;71.90;;;;;;6221263;28;20052;-88
2023/10/25 10:27:21;;;;;;;12.70;5.03;;;14.10;70.70;;;;;;6194788;28;20061;-77
2023/10/25 10:30:22;;;;;;;11.52;5.43;;;14.30;72.40;;;;;;6218579;28;20056;-81
2023/10/25 10:33:24;;;;;;;10.20;4.93;;;14.50;72.40;;;;;;6197623;28;20540;-77
2023/10/25 10:36:26;;;;;;;10.32;4.82;;;15.00;70.30;;;;;;6218726;28;20128;-84
2023/10/25 10:39:28;;;;;;;10.55;4.65;;;15.10;54.70;;;;;;6196607;28;20050;-81
2023/10/25 10:42:36;;;;;;;11.98;4.60;;;15.50;56.10;;;;;;6220834;28;20524;-78
2023/10/25 10:45:37;;;;;;;10.77;4.20;;;15.60;56.20;;;;;;6212312;28;20061;-79
2023/10/25 10:48:39;;;;;;;9.45;4.60;;;15.50;59.30;;;;;;6196875;28;20049;-89
2023/10/25 10:51:41;;;;;;;10.88;4.90;;;15.40;56.00;;;;;;6220635;28;20054;-80
2023/10/25 10:54:43;;;;;;;12.60;4.70;;;15.30;54.60;;;;;;6196264;28;20046;-81
2023/10/25 10:57:44;;;;;;;11.52;4.35;;;15.30;61.60;;;;;;6219504;28;20073;-85
2023/10/25 11:01:06;;;;;;;9.23;4.07;;;15.20;55.80;;;;;;6196181;28;20065;-81
2023/10/25 11:04:08;;;;;;;10.40;4.40;;;15.30;58.70;;;;;;6195454;28;20069;-83
2023/10/25 11:07:09;;;;;;;8.60;4.07;;;15.10;51.40;;;;;;6219106;28;20088;-92
2023/10/25 11:10:11;;;;;;;9.32;4.18;;;14.90;53.20;;;;;;6198524;28;20047;-82
2023/10/25 11:13:13;;;;;;;7.03;3.65;;;14.80;58.30;;;;;;6213824;28;20491;-83
2023/10/25 11:16:14;;;;;;;10.30;4.18;;;14.60;56.90;;;;;;6197307;28;20058;-81
2023/10/25 11:19:16;;;;;;;9.27;3.80;;;14.70;55.30;;;;;;6196149;28;20058;-81
2023/10/25 11:22:18;;;;;;;9.88;3.97;;;14.80;46.70;;;;;;6171896;28;20062;-82
2023/10/25 11:25:24;;;;;;;7.32;3.63;;;14.90;58.50;;;;;;6195134;28;20049;-87
2023/10/25 11:28:26;;;;;;;10.05;3.90;;;15.10;61.40;;;;;;6209235;28;20145;-84
2023/10/25 11:31:27;;;;;;;7.30;3.35;;;15.10;55.70;;;;;;6195351;28;20052;-82
2023/10/25 11:34:29;;;;;;;7.45;3.47;;;15.10;48.90;;;;;;6219294;28;20056;-79
2023/10/25 11:37:32;;;;;;;10.40;3.58;;;15.10;52.40;;;;;;6219667;28;20053;-78
2023/10/25 11:40:34;;;;;;;6.07;3.28;;;15.30;45.30;;;;;;6186741;28;20059;-91
2023/10/25 11:43:36;;;;;;;7.88;3.65;;;15.30;44.50;;;;;;6201810;28;20061;-79
2023/10/25 11:46:37;;;;;;;9.27;3.72;;;15.00;44.60;;;;;;6173967;28;20509;-84
2023/10/25 11:49:40;;;;;;;9.18;3.60;;;14.90;51.60;;;;;;6169901;28;20454;-79
2023/10/25 11:52:41;;;;;;;9.10;3.47;;;14.80;59.60;;;;;;6220074;28;20065;-79
2023/10/25 11:55:43;;;;;;;7.68;3.17;;;14.80;51.90;;;;;;6220020;28;20155;-78
2023/10/25 11:58:45;;;;;;;7.88;3.53;;;14.70;60.50;;;;;;6199790;28;20066;-88
2023/10/25 12:01:46;;;;;;;8.45;3.40;;;14.70;61.20;;;;;;6231289;28;20524;-81
2023/10/25 12:04:48;;;;;;;7.95;3.25;;;14.80;57.90;;;;;;6190417;28;20141;-81
2023/10/25 12:07:50;;;;;;;10.00;2.90;;;14.70;60.70;;;;;;6187073;28;20055;-88
2023/10/25 12:10:51;;;;;;;4.47;2.50;;;14.70;61.00;;;;;;6220673;28;20061;-82
2023/10/25 12:13:53;;;;;;;7.28;2.45;;;14.70;62.50;;;;;;6205511;28;20061;-82
2023/10/25 12:16:55;;;;;;;7.22;2.60;;;14.80;59.00;;;;;;6219825;28;20501;-82
2023/10/25 12:19:56;;;;;;;7.00;2.67;;;14.80;56.40;;;;;;6194178;28;20417;-82
2023/10/25 12:23:08;;;;;;;6.50;2.20;;;14.80;50.20;;;;;;6183422;28;20181;-79
2023/10/25 12:26:11;;;;;;;7.50;2.95;;;15.00;51.00;;;;;;6195448;28;20058;-79
2023/10/25 12:29:12;;;;;;;8.73;2.65;;;15.80;56.40;;;;;;6210880;28;20054;-83
2023/10/25 12:32:14;;;;;;;7.57;2.50;;;16.70;38.10;;;;;;6193796;28;20066;-89
2023/10/25 12:35:16;;;;;;;10.57;2.65;;;16.70;22.30;;;;;;6177718;28;20150;-90
2023/10/25 12:38:17;;;;;;;7.78;2.38;;;16.70;28.70;;;;;;6188088;28;20062;-85
2023/10/25 12:41:19;;;;;;;6.50;2.75;;;16.50;30.50;;;;;;6238450;28;20046;-87
2023/10/25 12:44:21;;;;;;;6.50;2.60;;;16.50;36.50;;;;;;6201961;28;20057;-94
2023/10/25 12:47:23;;;;;;;9.75;2.85;;;16.40;34.00;;;;;;6206316;28;20054;-91
2023/10/25 12:50:25;;;;;;;8.13;2.70;;;16.40;38.40;;;;;;6193943;28;20470;-78
2023/10/25 12:53:27;;;;;;;6.40;2.63;;;16.40;36.90;;;;;;6184709;28;20046;-79
2023/10/25 12:56:29;;;;;;;6.03;2.63;;;16.20;38.40;;;;;;6218159;28;20061;-79
2023/10/25 12:59:31;;;;;;;6.05;2.70;;;16.10;33.50;;;;;;6198509;28;20068;-79
2023/10/25 13:02:33;;;;;;;7.90;2.70;;;16.10;37.90;;;;;;6193207;28;20093;-80
2023/10/25 13:05:34;;;;;;;4.68;2.60;;;15.90;31.00;;;;;;6217587;28;20234;-80
2023/10/25 13:08:36;;;;;;;7.40;2.80;;;15.90;40.00;;;;;;6194846;28;20058;-78
2023/10/25 13:11:38;;;;;;;10.60;2.85;;;15.90;38.00;;;;;;6217338;28;20050;-79
2023/10/25 13:14:39;;;;;;;7.47;2.47;;;15.80;40.90;;;;;;6194337;28;20073;-78
2023/10/25 13:17:41;;;;;;;6.00;2.70;;;15.70;39.90;;;;;;6217879;28;20068;-78
2023/10/25 13:20:43;;;;;;;5.90;2.80;;;15.50;35.20;;;;;;6194420;28;20050;-78
2023/10/25 13:23:45;;;;;;;6.95;3.50;;;15.40;43.90;;;;;;6219853;28;20144;-79
2023/10/25 13:26:46;;;;;;;9.02;4.05;;;15.40;44.30;;;;;;6199152;28;20422;-79
2023/10/25 13:29:48;;;;;;;7.93;4.00;;;15.30;44.20;;;;;;6219848;28;20519;-78
2023/10/25 13:32:50;;;;;;;11.73;4.05;;;15.10;42.20;;;;;;6198452;28;20050;-79
2023/10/25 13:35:52;;;;;;;8.60;4.00;;;15.10;41.00;;;;;;6222127;28;20054;-78
2023/10/25 13:38:53;;;;;;;8.35;3.80;;;15.10;42.00;;;;;;6198737;28;20085;-79
2023/10/25 13:41:55;;;;;;;8.05;4.05;;;15.20;39.50;;;;;;6222289;28;20065;-79
2023/10/25 13:44:56;;;;;;;7.70;3.83;;;15.30;43.40;;;;;;6204623;28;20064;-79
2023/10/25 13:47:58;;;;;;;9.00;3.80;;;15.40;38.30;;;;;;6198527;28;20058;-78
2023/10/25 13:51:00;;;;;;;9.43;3.47;;;15.40;36.80;;;;;;6222360;28;20058;-79
2023/10/25 13:54:02;;;;;;;6.63;3.30;;;15.40;39.30;;;;;;6198368;28;20105;-79
2023/10/25 13:57:03;;;;;;;10.43;3.30;;;15.40;39.70;;;;;;6221252;28;20421;-78
2023/10/25 14:00:06;;;;;;;8.55;4.03;;;15.40;33.90;;;;;;6192394;28;20145;-79
2023/10/25 14:03:08;;;;;;;5.50;2.55;;;15.30;33.20;;;;;;6223480;28;20559;-80
2023/10/25 14:06:10;;;;;;;6.93;2.53;;;15.20;30.60;;;;;;6201895;28;20055;-88
2023/10/25 14:09:12;;;;;;;8.52;2.90;;;15.30;36.80;;;;;;6200197;28;20169;-85
2023/10/25 14:12:14;;;;;;;5.47;2.28;;;15.30;29.20;;;;;;6175588;28;20054;-86
2023/10/25 14:15:16;;;;;;;8.43;2.67;;;15.20;30.60;;;;;;6205933;28;20058;-87
2023/10/25 14:18:18;;;;;;;8.25;2.55;;;15.20;35.00;;;;;;6222863;28;20058;-81
2023/10/25 14:21:20;;;;;;;6.07;2.60;;;15.20;29.10;;;;;;6221788;28;20141;-81
2023/10/25 14:24:21;;;;;;;10.63;2.28;;;15.10;25.60;;;;;;6177331;28;20150;-88
2023/10/25 14:27:25;;;;;;;4.57;1.90;;;15.10;29.00;;;;;;6191838;28;20067;-78
2023/10/25 14:30:26;;;;;;;6.25;2.10;;;15.10;31.30;;;;;;6217427;28;20060;-88
2023/10/25 14:33:28;;;;;;;4.80;2.20;;;15.30;27.70;;;;;;6224002;28;20050;-82
2023/10/25 14:36:33;;;;;;;3.97;1.80;;;15.20;28.80;;;;;;6211514;28;20085;-77
2023/10/25 14:39:37;;;;;;;6.72;2.00;;;15.30;25.70;;;;;;6202781;28;20060;-89
2023/10/25 14:42:38;;;;;;;5.85;2.08;;;15.10;24.00;;;;;;6222092;28;20046;-80
2023/10/25 14:45:40;;;;;;;4.82;2.10;;;15.00;30.40;;;;;;6215752;28;20196;-84
2023/10/25 14:48:42;;;;;;;7.05;2.20;;;14.90;22.60;;;;;;6202173;28;20054;-78
2023/10/25 14:51:43;;;;;;;9.52;2.22;;;14.80;26.60;;;;;;6221223;28;20054;-83
2023/10/25 14:54:47;;;;;;;6.60;2.40;;;14.70;24.20;;;;;;6200942;28;20502;-78
2023/10/25 14:57:51;;;;;;;7.03;2.30;;;14.40;29.90;;;;;;6218728;28;20049;-77
2023/10/25 15:00:53;;;;;;;5.32;2.05;;;14.20;30.80;;;;;;6192164;28;20065;-78
2023/10/25 15:03:55;;;;;;;7.53;2.33;;;14.10;29.60;;;;;;6171125;28;20166;-78
2023/10/25 15:07:00;;;;;;;10.10;3.30;;;14.00;34.10;;;;;;6221543;28;20061;-86
2023/10/25 15:10:01;;;;;;;7.03;3.60;;;14.00;32.80;;;;;;6199404;28;20493;-78
2023/10/25 15:13:03;;;;;;;6.35;2.75;;;13.90;31.90;;;;;;6213057;28;20050;-83
2023/10/25 15:16:05;;;;;;;7.50;3.03;;;13.80;35.70;;;;;;6194991;28;20057;-82
2023/10/25 15:19:06;;;;;;;5.47;2.67;;;13.80;36.50;;;;;;6170597;28;20065;-81
2023/10/25 15:22:08;;;;;;;7.93;2.85;;;13.70;37.80;;;;;;6218769;28;20414;-80
2023/10/25 15:25:09;;;;;;;8.23;3.53;;;13.70;39.60;;;;;;6197984;28;20058;-83
2023/10/25 15:28:11;;;;;;;7.20;3.33;;;13.60;41.80;;;;;;6212512;28;20417;-86
2023/10/25 15:31:15;;;;;;;6.63;2.90;;;13.50;41.30;;;;;;6198525;28;20054;-85
2023/10/25 15:34:16;;;;;;;9.10;2.97;;;13.50;40.40;;;;;;6222128;28;20065;-89
2023/10/25 15:37:18;;;;;;;6.13;2.33;;;13.30;44.50;;;;;;6196531;28;20050;-81
2023/10/25 15:40:20;;;;;;;5.70;2.80;;;13.30;48.90;;;;;;6218075;28;20069;-80
2023/10/25 15:43:29;;;;;;;5.68;2.45;;;13.10;50.00;;;;;;6194886;28;20058;-82